Time;durP1;ratioP1;P1;durP2;ratioP2;P2;SDS_P1;SDS_P2;PMS_P1;PMS_P2;Temp;Humidity;BMP_temperature;BMP_pressure;BME280_temperature;BME280_humidity;BME280_pressure;Samples;Min_cycle;Max_cycle;Signal;HPM_P1;HPM_P2
2022/05/15 00:02:42;;;;;;;;;;;;;;;11.48;100.00;102113.59;2612579;36;19957;-49
2022/05/15 00:05:10;;;;;;;;;;;;;;;11.48;100.00;102127.09;2612589;36;20478;-49
2022/05/15 00:07:38;;;;;;;;;;;;;;;11.54;100.00;102134.75;2612652;36;19950;-47
2022/05/15 00:10:07;;;;;;;;;;;;;;;11.40;100.00;102121.41;2612695;36;19947;-47
2022/05/15 00:12:38;;;;;;;;;;;;;;;11.32;100.00;102113.00;2612815;36;20426;-48
2022/05/15 00:15:06;;;;;;;;;;;;;;;11.30;100.00;102121.19;2613483;36;20506;-47
2022/05/15 00:17:34;;;;;;;;;;;;;;;11.15;100.00;102117.75;2612855;36;19970;-46
2022/05/15 00:20:02;;;;;;;;;;;;;;;11.08;100.00;102113.78;2612753;36;20034;-49
2022/05/15 00:22:30;;;;;;;;;;;;;;;11.02;100.00;102112.38;2612771;31;20412;-47
2022/05/15 00:24:58;;;;;;;;;;;;;;;10.96;100.00;102109.25;2613361;31;20423;-53
2022/05/15 00:27:26;;;;;;;;;;;;;;;10.92;100.00;102113.13;2613121;36;20030;-49
2022/05/15 00:29:57;;;;;;;;;;;;;;;10.90;100.00;102110.53;2612838;36;19947;-48
2022/05/15 00:32:25;;;;;;;;;;;;;;;10.91;100.00;102112.28;2612416;31;19951;-48
2022/05/15 00:34:53;;;;;;;;;;;;;;;10.98;100.00;102112.69;2612708;36;20038;-48
2022/05/15 00:37:21;;;;;;;;;;;;;;;10.98;100.00;102110.00;2612632;36;19946;-48
2022/05/15 00:39:49;;;;;;;;;;;;;;;11.01;100.00;102102.59;2612203;36;19972;-50
2022/05/15 00:42:17;;;;;;;;;;;;;;;10.99;100.00;102106.34;2612531;31;20054;-49
2022/05/15 00:44:45;;;;;;;;;;;;;;;10.97;100.00;102102.91;2612952;36;20034;-53
2022/05/15 00:47:16;;;;;;;;;;;;;;;10.90;100.00;102107.84;2612830;36;20026;-48
2022/05/15 00:49:44;;;;;;;;;;;;;;;10.92;100.00;102111.28;2613232;36;21091;-47
2022/05/15 00:52:14;;;;;;;;;;;;;;;10.96;100.00;102104.72;2613120;36;20058;-48
2022/05/15 00:54:44;;;;;;;;;;;;;;;10.91;100.00;102100.63;2612736;36;20054;-49
2022/05/15 00:57:14;;;;;;;;;;;;;;;10.91;100.00;102104.19;2612718;36;19954;-49
2022/05/15 00:59:45;;;;;;;;;;;;;;;10.93;100.00;102104.09;2607147;36;19951;-50
2022/05/15 01:02:16;;;;;;;;;;;;;;;10.86;100.00;102112.59;2606870;36;19977;-47
2022/05/15 01:04:44;;;;;;;;;;;;;;;10.91;100.00;102106.00;2612507;36;20034;-52
2022/05/15 01:07:12;;;;;;;;;;;;;;;10.93;100.00;102109.47;2612473;36;20085;-52
2022/05/15 01:09:40;;;;;;;;;;;;;;;10.91;100.00;102108.72;2612820;36;20344;-46
2022/05/15 01:12:09;;;;;;;;;;;;;;;10.95;100.00;102104.84;2612258;36;19947;-48
2022/05/15 01:14:38;;;;;;;;;;;;;;;10.95;100.00;102102.13;2612629;36;20094;-48
2022/05/15 01:17:06;;;;;;;;;;;;;;;10.92;100.00;102102.34;2611710;36;20907;-50
2022/05/15 01:19:38;;;;;;;;;;;;;;;10.93;100.00;102109.47;2611984;36;20456;-51
2022/05/15 01:22:15;;;;;;;;;;;;;;;10.82;100.00;102108.41;2627598;36;20046;-47
2022/05/15 01:24:43;;;;;;;;;;;;;;;10.72;100.00;102101.03;2612353;36;19978;-51
2022/05/15 01:27:12;;;;;;;;;;;;;;;10.67;100.00;102098.69;2612729;36;20066;-49
2022/05/15 01:29:43;;;;;;;;;;;;;;;10.65;100.00;102108.72;2612589;36;20046;-50
2022/05/15 01:32:12;;;;;;;;;;;;;;;10.64;100.00;102110.50;2611731;31;19954;-52
2022/05/15 01:34:40;;;;;;;;;;;;;;;10.51;100.00;102102.44;2612324;36;20061;-51
2022/05/15 01:37:11;;;;;;;;;;;;;;;10.50;100.00;102105.25;2612044;36;19951;-49
2022/05/15 01:39:39;;;;;;;;;;;;;;;10.62;100.00;102103.53;2612704;36;20396;-48
2022/05/15 01:42:08;;;;;;;;;;;;;;;10.57;100.00;102108.34;2612053;36;19992;-48
2022/05/15 01:44:36;;;;;;;;;;;;;;;10.52;100.00;102109.53;2613373;31;19946;-47
2022/05/15 01:47:04;;;;;;;;;;;;;;;10.35;100.00;102112.53;2612540;36;20076;-50
2022/05/15 01:49:32;;;;;;;;;;;;;;;10.28;100.00;102108.50;2612534;36;20034;-51
2022/05/15 01:52:00;;;;;;;;;;;;;;;10.14;100.00;102104.91;2613603;31;20565;-47
2022/05/15 01:54:31;;;;;;;;;;;;;;;10.17;100.00;102104.69;2613430;36;19951;-52
2022/05/15 01:56:59;;;;;;;;;;;;;;;10.10;100.00;102102.50;2613487;36;19947;-49
2022/05/15 01:59:27;;;;;;;;;;;;;;;10.08;100.00;102099.91;2614448;31;20494;-49
2022/05/15 02:01:55;;;;;;;;;;;;;;;10.00;100.00;102092.38;2607584;36;19957;-48
2022/05/15 02:04:23;;;;;;;;;;;;;;;10.05;100.00;102093.88;2613396;36;19989;-50
2022/05/15 02:06:51;;;;;;;;;;;;;;;10.00;100.00;102094.19;2607376;36;20057;-47
2022/05/15 02:09:20;;;;;;;;;;;;;;;9.95;100.00;102096.31;2613028;36;19965;-48
2022/05/15 02:11:50;;;;;;;;;;;;;;;9.88;100.00;102092.31;2613049;36;20053;-47
2022/05/15 02:14:18;;;;;;;;;;;;;;;9.82;100.00;102097.13;2613221;36;20378;-47
2022/05/15 02:16:46;;;;;;;;;;;;;;;9.71;100.00;102090.75;2613407;36;20034;-49
2022/05/15 02:19:14;;;;;;;;;;;;;;;9.64;100.00;102085.78;2613283;36;20038;-47
2022/05/15 02:21:44;;;;;;;;;;;;;;;9.62;100.00;102087.66;2613057;36;20125;-53
2022/05/15 02:24:12;;;;;;;;;;;;;;;9.62;100.00;102092.19;2612223;36;19981;-51
2022/05/15 02:26:40;;;;;;;;;;;;;;;9.54;100.00;102086.44;2612389;36;20078;-51
2022/05/15 02:29:11;;;;;;;;;;;;;;;9.51;100.00;102084.84;2612222;36;20420;-47
2022/05/15 02:31:39;;;;;;;;;;;;;;;9.45;100.00;102088.78;2612923;36;20029;-51
2022/05/15 02:34:07;;;;;;;;;;;;;;;9.42;100.00;102088.97;2612364;36;20535;-48
2022/05/15 02:36:36;;;;;;;;;;;;;;;9.45;100.00;102088.78;2613139;36;19953;-52
2022/05/15 02:39:04;;;;;;;;;;;;;;;9.37;100.00;102091.09;2612776;31;20495;-47
2022/05/15 02:41:33;;;;;;;;;;;;;;;9.37;100.00;102087.53;2612977;54;20053;-45
2022/05/15 02:44:01;;;;;;;;;;;;;;;9.32;100.00;102085.16;2613431;36;19954;-53
2022/05/15 02:46:32;;;;;;;;;;;;;;;9.34;100.00;102088.59;2612576;31;20536;-49
2022/05/15 02:51:41;;;;;;;;;;;;;;;9.32;100.00;102077.09;2612209;36;19946;-48
2022/05/15 02:54:09;;;;;;;;;;;;;;;9.35;100.00;102078.69;2612257;36;20424;-47
2022/05/15 02:56:38;;;;;;;;;;;;;;;9.28;100.00;102086.31;2612810;36;19989;-49
2022/05/15 02:59:06;;;;;;;;;;;;;;;9.22;100.00;102084.88;2612475;36;19976;-46
2022/05/15 03:01:37;;;;;;;;;;;;;;;9.24;100.00;102082.94;2613050;36;19997;-48
2022/05/15 03:04:06;;;;;;;;;;;;;;;9.31;100.00;102083.41;2612552;36;20038;-47
2022/05/15 03:06:34;;;;;;;;;;;;;;;9.25;100.00;102083.81;2606290;36;19954;-53
2022/05/15 03:09:02;;;;;;;;;;;;;;;9.16;100.00;102084.38;2613020;36;20335;-50
2022/05/15 03:11:31;;;;;;;;;;;;;;;9.27;100.00;102081.88;2613371;36;20093;-52
2022/05/15 03:13:59;;;;;;;;;;;;;;;9.26;100.00;102074.78;2607035;36;19950;-47
2022/05/15 03:16:28;;;;;;;;;;;;;;;9.20;100.00;102077.84;2612381;36;20077;-49
2022/05/15 03:18:58;;;;;;;;;;;;;;;9.12;100.00;102079.19;2612714;36;19950;-47
2022/05/15 03:21:32;;;;;;;;;;;;;;;9.14;100.00;102079.09;2612638;31;19950;-48
2022/05/15 03:24:01;;;;;;;;;;;;;;;9.14;100.00;102078.25;2612996;36;19962;-53
2022/05/15 03:26:29;;;;;;;;;;;;;;;9.08;100.00;102077.69;2612600;36;19950;-48
2022/05/15 03:28:57;;;;;;;;;;;;;;;9.08;100.00;102082.19;2612853;36;20074;-46
2022/05/15 03:31:26;;;;;;;;;;;;;;;9.04;100.00;102081.53;2610656;36;20042;-51
2022/05/15 03:33:54;;;;;;;;;;;;;;;9.18;100.00;102087.84;2613302;36;19969;-49
2022/05/15 03:36:24;;;;;;;;;;;;;;;9.11;100.00;102076.63;2611715;36;20014;-46
2022/05/15 03:38:53;;;;;;;;;;;;;;;9.08;100.00;102072.31;2611413;36;19978;-47
2022/05/15 03:41:21;;;;;;;;;;;;;;;9.00;100.00;102074.63;2611785;36;19955;-49
2022/05/15 03:43:49;;;;;;;;;;;;;;;9.05;100.00;102072.50;2612950;36;19950;-50
2022/05/15 03:46:17;;;;;;;;;;;;;;;9.19;100.00;102076.16;2613134;31;19946;-50
2022/05/15 03:48:45;;;;;;;;;;;;;;;9.08;100.00;102077.69;2613057;36;20067;-50
2022/05/15 03:51:13;;;;;;;;;;;;;;;9.02;100.00;102067.31;2613694;36;20335;-52
2022/05/15 03:53:43;;;;;;;;;;;;;;;9.08;100.00;102072.31;2613029;36;20145;-50
2022/05/15 03:56:11;;;;;;;;;;;;;;;9.15;100.00;102071.94;2612152;36;20016;-47
2022/05/15 03:58:40;;;;;;;;;;;;;;;9.15;100.00;102061.19;2613153;36;20041;-49
2022/05/15 04:01:08;;;;;;;;;;;;;;;9.04;100.00;102065.41;2612509;36;20475;-48
2022/05/15 04:03:36;;;;;;;;;;;;;;;9.15;100.00;102058.50;2613032;36;20424;-52
2022/05/15 04:06:05;;;;;;;;;;;;;;;9.18;100.00;102058.31;2612179;36;20053;-52
2022/05/15 04:08:33;;;;;;;;;;;;;;;9.20;100.00;102068.00;2612348;36;20097;-47
2022/05/15 04:11:03;;;;;;;;;;;;;;;9.26;100.00;102058.66;2613881;31;20442;-51
2022/05/15 04:13:31;;;;;;;;;;;;;;;9.41;100.00;102057.69;2611897;31;20044;-50
2022/05/15 04:16:00;;;;;;;;;;;;;;;9.45;100.00;102059.22;2607387;36;20049;-48
2022/05/15 04:18:28;;;;;;;;;;;;;;;9.56;100.00;102058.50;2606688;36;20469;-48
2022/05/15 04:20:56;;;;;;;;;;;;;;;9.59;100.00;102052.09;2612700;31;20105;-46
2022/05/15 04:23:24;;;;;;;;;;;;;;;9.53;100.00;102053.34;2612485;36;20070;-52
2022/05/15 04:25:52;;;;;;;;;;;;;;;9.56;100.00;102063.88;2612111;36;20042;-51
2022/05/15 04:28:23;;;;;;;;;;;;;;;9.57;100.00;102064.75;2612678;36;20440;-49
2022/05/15 04:30:51;;;;;;;;;;;;;;;9.65;100.00;102059.75;2612109;36;20061;-48
2022/05/15 04:33:19;;;;;;;;;;;;;;;9.60;100.00;102059.19;2611960;36;20097;-49
2022/05/15 04:35:47;;;;;;;;;;;;;;;9.66;100.00;102061.47;2612558;36;19953;-48
2022/05/15 04:38:15;;;;;;;;;;;;;;;9.78;100.00;102052.59;2612480;36;20682;-50
2022/05/15 04:40:43;;;;;;;;;;;;;;;9.71;100.00;102059.31;2612084;36;20353;-49
2022/05/15 04:43:11;;;;;;;;;;;;;;;9.69;100.00;102055.91;2612722;36;20077;-53
2022/05/15 04:45:42;;;;;;;;;;;;;;;9.74;100.00;102063.66;2612998;36;20359;-50
2022/05/15 04:48:11;;;;;;;;;;;;;;;9.84;100.00;102063.91;2612260;31;20518;-52
2022/05/15 04:50:39;;;;;;;;;;;;;;;9.95;100.00;102066.72;2611902;36;19950;-51
2022/05/15 04:53:07;;;;;;;;;;;;;;;10.01;100.00;102066.31;2612861;31;19955;-49
2022/05/15 04:55:36;;;;;;;;;;;;;;;9.98;100.00;102066.53;2612109;36;20407;-49
2022/05/15 04:58:04;;;;;;;;;;;;;;;10.07;100.00;102071.31;2612157;36;20616;-47
2022/05/15 05:00:32;;;;;;;;;;;;;;;10.18;100.00;102073.25;2612122;36;20058;-47
2022/05/15 05:03:03;;;;;;;;;;;;;;;10.23;100.00;102067.56;2612963;36;19946;-47
2022/05/15 05:05:31;;;;;;;;;;;;;;;10.20;100.00;102076.69;2612024;36;20062;-55
2022/05/15 05:07:59;;;;;;;;;;;;;;;10.22;100.00;102073.91;2612419;36;20017;-48
2022/05/15 05:10:27;;;;;;;;;;;;;;;10.52;100.00;102066.47;2611539;36;19955;-48
2022/05/15 05:12:55;;;;;;;;;;;;;;;10.54;100.00;102074.47;2612414;36;20042;-48
2022/05/15 05:15:23;;;;;;;;;;;;;;;10.63;100.00;102072.94;2612432;36;20126;-47
2022/05/15 05:17:51;;;;;;;;;;;;;;;10.68;100.00;102076.19;2606675;31;20057;-48
2022/05/15 05:20:22;;;;;;;;;;;;;;;10.77;100.00;102086.28;2612323;36;20089;-47
2022/05/15 05:22:50;;;;;;;;;;;;;;;10.80;100.00;102087.91;2612736;31;20050;-50
2022/05/15 05:25:19;;;;;;;;;;;;;;;10.84;100.00;102086.75;2612782;36;20014;-49
2022/05/15 05:27:47;;;;;;;;;;;;;;;11.04;100.00;102093.41;2607259;36;19950;-48
2022/05/15 05:30:16;;;;;;;;;;;;;;;10.94;100.00;102093.22;2612217;36;20342;-48
2022/05/15 05:32:44;;;;;;;;;;;;;;;10.96;100.00;102101.19;2613627;36;20057;-47
2022/05/15 05:35:13;;;;;;;;;;;;;;;11.20;100.00;102099.44;2613523;36;20049;-52
2022/05/15 05:37:44;;;;;;;;;;;;;;;11.18;100.00;102101.38;2612892;36;19981;-47
2022/05/15 05:40:12;;;;;;;;;;;;;;;11.22;100.00;102093.94;2613122;31;20051;-48
2022/05/15 05:42:40;;;;;;;;;;;;;;;11.33;100.00;102101.25;2611634;36;20033;-50
2022/05/15 05:45:09;;;;;;;;;;;;;;;11.37;100.00;102100.06;2612830;36;19947;-47
2022/05/15 05:47:38;;;;;;;;;;;;;;;11.48;100.00;102092.03;2613162;31;19978;-49
2022/05/15 05:50:08;;;;;;;;;;;;;;;11.71;100.00;102097.59;2612615;36;20117;-50
2022/05/15 05:52:36;;;;;;;;;;;;;;;11.81;100.00;102097.78;2612892;36;19954;-51
2022/05/15 05:55:08;;;;;;;;;;;;;;;11.94;100.00;102092.34;2613103;31;20538;-48
2022/05/15 05:57:36;;;;;;;;;;;;;;;12.00;100.00;102094.56;2613607;36;20478;-47
2022/05/15 06:00:05;;;;;;;;;;;;;;;12.25;100.00;102096.31;2611542;36;20427;-50
2022/05/15 06:02:33;;;;;;;;;;;;;;;12.23;100.00;102093.72;2613405;36;19946;-49
2022/05/15 06:04:58;;;;;;;;;;;;;;;12.44;100.00;102090.38;2612584;31;19958;-46
2022/05/15 06:07:28;;;;;;;;;;;;;;;12.47;100.00;102084.72;2612496;36;20560;-47
2022/05/15 06:09:57;;;;;;;;;;;;;;;12.54;100.00;102085.94;2613099;36;19957;-47
2022/05/15 06:12:28;;;;;;;;;;;;;;;12.67;100.00;102085.00;2612906;31;19954;-52
2022/05/15 06:14:56;;;;;;;;;;;;;;;12.93;100.00;102070.31;2611902;36;19989;-49
2022/05/15 06:17:24;;;;;;;;;;;;;;;13.03;100.00;102074.97;2613247;36;19951;-47
2022/05/15 06:19:53;;;;;;;;;;;;;;;13.37;100.00;102069.56;2612966;36;20434;-50
2022/05/15 06:22:21;;;;;;;;;;;;;;;13.48;100.00;102074.97;2612934;36;20078;-46
2022/05/15 06:24:49;;;;;;;;;;;;;;;13.94;100.00;102071.19;2612809;36;20546;-47
2022/05/15 06:27:17;;;;;;;;;;;;;;;14.11;100.00;102068.91;2606530;36;19977;-48
2022/05/15 06:29:48;;;;;;;;;;;;;;;14.31;100.00;102068.06;2613210;36;20558;-47
2022/05/15 06:32:16;;;;;;;;;;;;;;;14.93;100.00;102057.34;2612592;31;20409;-47
2022/05/15 06:34:44;;;;;;;;;;;;;;;14.82;100.00;102054.72;2607130;36;19946;-48
2022/05/15 06:37:12;;;;;;;;;;;;;;;14.80;100.00;102051.31;2613283;36;20071;-50
2022/05/15 06:39:40;;;;;;;;;;;;;;;15.07;100.00;102059.72;2612683;36;20085;-48
2022/05/15 06:42:08;;;;;;;;;;;;;;;15.11;100.00;102051.31;2612007;36;20037;-50
2022/05/15 06:44:36;;;;;;;;;;;;;;;14.95;100.00;102051.81;2612684;36;20034;-49
2022/05/15 06:47:07;;;;;;;;;;;;;;;15.16;100.00;102059.88;2612414;36;20046;-48
2022/05/15 06:49:35;;;;;;;;;;;;;;;15.26;100.00;102060.75;2613809;36;20536;-47
2022/05/15 06:52:03;;;;;;;;;;;;;;;15.50;100.00;102059.56;2612713;36;20077;-49
2022/05/15 06:54:31;;;;;;;;;;;;;;;15.79;100.00;102065.06;2612885;36;19946;-52
2022/05/15 06:59:40;;;;;;;;;;;;;;;16.21;100.00;102055.78;2613131;36;20756;-51
2022/05/15 07:02:11;;;;;;;;;;;;;;;16.30;100.00;102049.50;2613619;36;20110;-47
2022/05/15 07:04:39;;;;;;;;;;;;;;;16.45;100.00;102050.75;2612390;36;20046;-48
2022/05/15 07:07:07;;;;;;;;;;;;;;;16.67;100.00;102048.72;2612004;36;19958;-50
2022/05/15 07:09:35;;;;;;;;;;;;;;;16.60;100.00;102042.16;2612520;31;19954;-54
2022/05/15 07:12:04;;;;;;;;;;;;;;;16.76;100.00;102049.69;2613839;31;20057;-51
2022/05/15 07:14:33;;;;;;;;;;;;;;;17.03;100.00;102045.34;2613575;36;19946;-48
2022/05/15 07:17:01;;;;;;;;;;;;;;;16.93;100.00;102042.63;2613555;36;20053;-50
2022/05/15 07:19:31;;;;;;;;;;;;;;;16.94;100.00;102038.94;2613567;36;20514;-53
2022/05/15 07:21:59;;;;;;;;;;;;;;;17.37;100.00;102042.00;2612959;36;19947;-48
2022/05/15 07:24:28;;;;;;;;;;;;;;;17.40;100.00;102045.31;2612487;36;19978;-51
2022/05/15 07:26:56;;;;;;;;;;;;;;;17.36;100.00;102048.44;2612761;31;19946;-52
2022/05/15 07:29:24;;;;;;;;;;;;;;;17.33;100.00;102046.91;2612901;36;19946;-47
2022/05/15 07:31:53;;;;;;;;;;;;;;;17.59;100.00;102048.91;2613241;31;20342;-53
2022/05/15 07:34:21;;;;;;;;;;;;;;;17.58;100.00;102048.06;2612596;36;20411;-54
2022/05/15 07:36:52;;;;;;;;;;;;;;;17.77;100.00;102043.47;2612245;36;19957;-47
2022/05/15 07:39:21;;;;;;;;;;;;;;;18.06;100.00;102035.09;2613259;36;19972;-50
2022/05/15 07:41:49;;;;;;;;;;;;;;;18.08;100.00;102041.25;2611229;54;20461;-50
2022/05/15 07:44:17;;;;;;;;;;;;;;;18.25;100.00;102038.66;2612081;36;20042;-49
2022/05/15 07:46:45;;;;;;;;;;;;;;;18.29;100.00;102040.91;2614035;31;20412;-50
2022/05/15 07:49:13;;;;;;;;;;;;;;;18.37;100.00;102042.84;2613455;36;20045;-49
2022/05/15 07:51:44;;;;;;;;;;;;;;;18.76;100.00;102045.16;2613145;36;20472;-50
2022/05/15 07:54:15;;;;;;;;;;;;;;;18.80;100.00;102038.38;2613451;36;20086;-48
2022/05/15 07:56:44;;;;;;;;;;;;;;;19.00;100.00;102035.44;2612949;36;19946;-49
2022/05/15 07:59:13;;;;;;;;;;;;;;;19.09;100.00;102034.44;2613060;36;19950;-49
2022/05/15 08:01:41;;;;;;;;;;;;;;;19.21;100.00;102041.34;2613403;36;20038;-49
2022/05/15 08:04:09;;;;;;;;;;;;;;;19.43;100.00;102028.97;2613027;36;20037;-48
2022/05/15 08:09:21;;;;;;;;;;;;;;;19.20;100.00;102028.69;2613303;36;19960;-54
2022/05/15 08:11:49;;;;;;;;;;;;;;;19.50;100.00;102029.13;2612568;31;20560;-50
2022/05/15 08:14:18;;;;;;;;;;;;;;;19.73;100.00;102026.63;2613004;36;20065;-51
2022/05/15 08:16:46;;;;;;;;;;;;;;;19.74;100.00;102030.19;2613779;36;19947;-49
2022/05/15 08:24:38;;;;;;;;;;;;;;;20.44;96.94;102026.16;2613145;36;19946;-51
2022/05/15 08:27:06;;;;;;;;;;;;;;;20.11;97.65;102026.16;2612697;36;20669;-50
2022/05/15 08:29:34;;;;;;;;;;;;;;;20.27;100.00;102026.19;2613558;36;20394;-53
2022/05/15 08:32:02;;;;;;;;;;;;;;;20.30;100.00;102022.22;2612280;36;20038;-50
2022/05/15 08:34:31;;;;;;;;;;;;;;;20.72;100.00;102028.53;2613821;31;20038;-52
2022/05/15 08:37:00;;;;;;;;;;;;;;;20.86;100.00;102016.00;2613375;36;19947;-51
2022/05/15 08:39:29;;;;;;;;;;;;;;;20.81;98.30;102027.47;2614000;36;19977;-50
2022/05/15 08:42:06;;;;;;;;;;;;;;;21.02;96.80;102015.09;2614144;36;19946;-56
2022/05/15 08:44:35;;;;;;;;;;;;;;;21.04;90.62;102013.03;2613645;36;20042;-53
2022/05/15 08:47:13;;;;;;;;;;;;;;;21.15;97.72;102018.97;2613406;36;20331;-49
2022/05/15 08:49:43;;;;;;;;;;;;;;;21.47;93.58;102013.50;2613013;36;20078;-51
2022/05/15 08:52:13;;;;;;;;;;;;;;;21.57;84.40;102011.44;2613070;36;20034;-51
2022/05/15 08:54:43;;;;;;;;;;;;;;;21.62;87.84;102010.88;2611940;31;19946;-50
2022/05/15 08:57:19;;;;;;;;;;;;;;;21.64;76.11;102003.31;2612254;36;20109;-52
2022/05/15 08:59:52;;;;;;;;;;;;;;;21.37;81.17;101999.19;2613117;36;19957;-52
2022/05/15 09:02:20;;;;;;;;;;;;;;;21.39;83.04;101997.94;2613278;36;19946;-52
2022/05/15 09:04:48;;;;;;;;;;;;;;;21.79;81.15;101984.19;2612947;36;20041;-50
2022/05/15 09:07:25;;;;;;;;;;;;;;;22.14;74.64;101987.34;2611097;36;19954;-56
2022/05/15 09:09:57;;;;;;;;;;;;;;;22.22;77.73;101982.63;2610937;31;19962;-51
2022/05/15 09:12:28;;;;;;;;;;;;;;;22.29;71.34;101982.75;2612332;36;20061;-50
2022/05/15 09:15:02;;;;;;;;;;;;;;;22.61;72.36;101975.22;2612597;36;19978;-54
2022/05/15 09:17:36;;;;;;;;;;;;;;;22.82;71.87;101974.47;2613049;36;19946;-51
2022/05/15 09:20:07;;;;;;;;;;;;;;;22.74;76.28;101986.38;2611981;36;19958;-49
2022/05/15 09:22:37;;;;;;;;;;;;;;;23.06;65.44;101976.03;2610750;36;19947;-54
2022/05/15 09:25:09;;;;;;;;;;;;;;;22.73;71.57;101984.72;2612361;36;19966;-49
2022/05/15 09:27:40;;;;;;;;;;;;;;;22.89;68.42;101977.28;2612648;36;20057;-52
2022/05/15 09:30:11;;;;;;;;;;;;;;;23.20;59.96;101974.38;2612732;36;19950;-50
2022/05/15 09:32:40;;;;;;;;;;;;;;;23.03;64.70;101976.44;2612524;36;19993;-48
2022/05/15 09:35:19;;;;;;;;;;;;;;;22.89;61.62;101977.28;2612337;36;19951;-48
2022/05/15 09:40:39;;;;;;;;;;;;;;;23.41;59.40;101970.78;2611487;36;19947;-53
2022/05/15 09:45:57;;;;;;;;;;;;;;;23.62;61.57;101971.84;2612651;31;19947;-49
2022/05/15 09:48:27;;;;;;;;;;;;;;;23.82;58.41;101971.19;2612561;36;19950;-54
2022/05/15 09:50:58;;;;;;;;;;;;;;;23.95;56.46;101965.84;2612471;36;20515;-50
2022/05/15 09:53:28;;;;;;;;;;;;;;;23.71;58.48;101967.06;2612055;36;20383;-61
2022/05/15 09:56:00;;;;;;;;;;;;;;;23.52;52.49;101960.34;2612617;36;20227;-59
2022/05/15 09:58:38;;;;;;;;;;;;;;;22.91;49.69;101967.00;2613843;31;20513;-48
2022/05/15 10:01:13;;;;;;;;;;;;;;;23.21;50.10;101956.81;2611669;36;19973;-52
2022/05/15 10:03:41;;;;;;;;;;;;;;;23.34;50.46;101955.28;2612692;31;19954;-61
2022/05/15 10:06:10;;;;;;;;;;;;;;;23.18;53.89;101959.97;2611076;36;19946;-51
2022/05/15 10:08:38;;;;;;;;;;;;;;;23.03;53.61;101954.47;2612833;36;20053;-50
2022/05/15 10:11:09;;;;;;;;;;;;;;;23.29;53.20;101961.34;2612418;36;20073;-48
2022/05/15 10:13:42;;;;;;;;;;;;;;;23.52;54.08;101954.84;2612055;36;19951;-51
2022/05/15 10:16:17;;;;;;;;;;;;;;;23.80;53.57;101952.97;2613718;36;20442;-57
2022/05/15 10:18:50;;;;;;;;;;;;;;;23.96;51.21;101956.56;2613534;36;20046;-49
2022/05/15 10:21:18;;;;;;;;;;;;;;;23.88;51.23;101945.69;2613561;36;20379;-49
2022/05/15 10:23:48;;;;;;;;;;;;;;;23.93;49.43;101943.19;2611280;36;19951;-49
2022/05/15 10:26:20;;;;;;;;;;;;;;;24.35;51.99;101938.66;2605409;36;19980;-58
2022/05/15 10:28:53;;;;;;;;;;;;;;;24.16;51.94;101929.22;2612791;36;19968;-56
2022/05/15 10:31:24;;;;;;;;;;;;;;;24.51;55.10;101931.13;2612501;36;20030;-49
2022/05/15 10:33:53;;;;;;;;;;;;;;;24.79;50.66;101934.69;2613626;36;20516;-48
2022/05/15 10:36:34;;;;;;;;;;;;;;;24.65;50.58;101939.28;2612690;36;19976;-58
2022/05/15 10:39:05;;;;;;;;;;;;;;;24.95;51.94;101932.63;2613403;36;20427;-54
2022/05/15 10:41:39;;;;;;;;;;;;;;;25.05;51.32;101927.56;2612745;36;19958;-54
2022/05/15 10:44:16;;;;;;;;;;;;;;;25.32;49.56;101916.66;2613471;36;19947;-53
2022/05/15 10:46:47;;;;;;;;;;;;;;;25.39;48.44;101912.00;2613332;36;19982;-56
2022/05/15 10:49:36;;;;;;;;;;;;;;;25.31;49.46;101915.81;2613127;36;20061;-51
2022/05/15 10:52:07;;;;;;;;;;;;;;;25.26;48.04;101920.22;2612430;36;19989;-59
2022/05/15 10:57:29;;;;;;;;;;;;;;;25.34;47.17;101906.28;2612698;36;19957;-49
2022/05/15 11:00:02;;;;;;;;;;;;;;;25.00;45.42;101903.41;2612172;36;20500;-58
2022/05/15 11:02:58;;;;;;;;;;;;;;;25.51;47.26;101904.84;2612034;31;19969;-50
2022/05/15 11:05:30;;;;;;;;;;;;;;;25.07;45.45;101908.94;2611738;36;19992;-49
2022/05/15 11:08:04;;;;;;;;;;;;;;;25.52;47.47;101906.50;2611988;36;20501;-59
2022/05/15 11:10:35;;;;;;;;;;;;;;;25.35;45.28;101905.22;2610957;36;20026;-48
2022/05/15 11:13:09;;;;;;;;;;;;;;;25.93;47.01;101899.09;2612696;31;20510;-52
2022/05/15 11:15:47;;;;;;;;;;;;;;;26.15;44.36;101882.34;2611834;36;20074;-56
2022/05/15 11:18:26;;;;;;;;;;;;;;;26.14;46.19;101892.53;2611471;36;19985;-56
2022/05/15 11:20:59;;;;;;;;;;;;;;;26.32;44.36;101874.44;2611393;36;19950;-53
2022/05/15 11:23:31;;;;;;;;;;;;;;;26.47;44.57;101875.03;2610013;36;19950;-51
2022/05/15 11:26:01;;;;;;;;;;;;;;;25.50;43.28;101883.84;2611375;36;19957;-55
2022/05/15 11:28:33;;;;;;;;;;;;;;;25.56;43.24;101882.16;2612045;36;20073;-49
2022/05/15 11:31:09;;;;;;;;;;;;;;;25.26;41.58;101874.22;2611897;31;19954;-52
2022/05/15 11:33:50;;;;;;;;;;;;;;;25.82;42.50;101867.47;2611865;36;19950;-54
2022/05/15 11:36:30;;;;;;;;;;;;;;;25.80;42.94;101863.25;2611067;36;20332;-53
2022/05/15 11:39:07;;;;;;;;;;;;;;;26.13;42.31;101867.91;2612239;36;20497;-49
2022/05/15 11:42:14;;;;;;;;;;;;;;;26.26;39.88;101872.56;2611197;31;19953;-61
2022/05/15 11:44:44;;;;;;;;;;;;;;;26.71;40.08;101859.66;2612553;36;19987;-51
2022/05/15 11:47:26;;;;;;;;;;;;;;;26.30;42.56;101868.31;2614559;36;19939;-60
2022/05/15 11:50:03;;;;;;;;;;;;;;;26.38;40.23;101860.63;2612482;31;20057;-51
2022/05/15 11:52:37;;;;;;;;;;;;;;;25.95;43.55;101852.84;2612300;36;19953;-53
2022/05/15 11:55:20;;;;;;;;;;;;;;;26.46;41.03;101851.25;2612478;36;19951;-53
2022/05/15 11:57:48;;;;;;;;;;;;;;;26.38;38.37;101848.72;2612157;36;20082;-52
2022/05/15 12:00:23;;;;;;;;;;;;;;;26.39;38.91;101850.44;2613004;36;20486;-50
2022/05/15 12:02:59;;;;;;;;;;;;;;;26.21;36.72;101838.16;2613199;31;20443;-49
2022/05/15 12:05:32;;;;;;;;;;;;;;;26.28;39.49;101838.16;2612933;31;20022;-61
2022/05/15 12:08:06;;;;;;;;;;;;;;;26.57;39.70;101825.72;2612851;36;19957;-53
2022/05/15 12:10:49;;;;;;;;;;;;;;;26.42;40.36;101825.16;2613272;36;20459;-56
2022/05/15 12:13:31;;;;;;;;;;;;;;;27.08;39.26;101815.69;2613169;36;19951;-58
2022/05/15 12:16:15;;;;;;;;;;;;;;;27.01;40.48;101812.09;2612557;36;19959;-55
2022/05/15 12:18:46;;;;;;;;;;;;;;;26.49;38.05;101811.34;2613441;36;19957;-50
2022/05/15 12:21:16;;;;;;;;;;;;;;;27.27;40.25;101815.75;2610788;31;19958;-62
2022/05/15 12:24:27;;;;;;;;;;;;;;;27.17;37.36;101812.66;2613024;36;20034;-53
2022/05/15 12:26:38;;;;;;;;;;;;;;;27.71;36.10;101813.06;2610733;36;19954;-54
2022/05/15 12:29:10;;;;;;;;;;;;;;;27.88;35.80;101814.16;2611657;36;20081;-59
2022/05/15 12:31:39;;;;;;;;;;;;;;;27.68;35.21;101813.50;2611507;36;20478;-52
2022/05/15 12:34:13;;;;;;;;;;;;;;;27.22;35.75;101816.44;2611674;36;20004;-53
2022/05/15 12:36:42;;;;;;;;;;;;;;;26.92;37.33;101813.47;2612744;36;19973;-56
2022/05/15 12:39:15;;;;;;;;;;;;;;;26.87;37.87;101811.38;2611559;36;19957;-61
2022/05/15 12:41:45;;;;;;;;;;;;;;;27.62;36.64;101809.75;2610316;36;20065;-54
2022/05/15 12:44:13;;;;;;;;;;;;;;;27.14;36.91;101811.19;2607922;36;19951;-53
2022/05/15 12:46:43;;;;;;;;;;;;;;;26.84;37.72;101806.28;2612033;36;20034;-53
2022/05/15 12:49:30;;;;;;;;;;;;;;;26.66;36.86;101806.13;2612942;36;20533;-59
2022/05/15 12:52:10;;;;;;;;;;;;;;;27.16;38.27;101811.78;2612211;36;20033;-54
2022/05/15 12:54:38;;;;;;;;;;;;;;;28.07;36.06;101805.91;2612611;36;20444;-54
2022/05/15 12:57:08;;;;;;;;;;;;;;;27.97;36.15;101795.38;2612655;31;20050;-59
2022/05/15 12:59:37;;;;;;;;;;;;;;;27.94;38.41;101798.56;2613031;36;19954;-52
2022/05/15 13:02:16;;;;;;;;;;;;;;;27.21;37.42;101795.41;2613127;36;19970;-59
2022/05/15 13:04:50;;;;;;;;;;;;;;;28.13;35.99;101785.59;2613228;36;19947;-56
2022/05/15 13:07:18;;;;;;;;;;;;;;;27.44;37.92;101780.13;2613831;31;20541;-64
2022/05/15 13:09:57;;;;;;;;;;;;;;;27.65;37.13;101786.31;2613096;36;19966;-50
2022/05/15 13:12:25;;;;;;;;;;;;;;;28.43;35.43;101777.34;2612901;31;20030;-52